sensor_id;sensor_type;location;lat;lon;timestamp;pressure;altitude;pressure_sealevel;temperature;humidity
57644;BME280;43474;46.510;6.686;2022-08-01T00:00:22;96587.50;;;21.31;59.76
57644;BME280;43474;46.510;6.686;2022-08-01T00:03:04;96594.47;;;21.18;61.14
57644;BME280;43474;46.510;6.686;2022-08-01T00:05:31;96588.59;;;21.16;62.38
57644;BME280;43474;46.510;6.686;2022-08-01T00:07:56;96591.47;;;21.06;61.71
57644;BME280;43474;46.510;6.686;2022-08-01T00:10:22;96586.19;;;21.01;62.90
57644;BME280;43474;46.510;6.686;2022-08-01T00:12:48;96601.88;;;20.99;63.71
57644;BME280;43474;46.510;6.686;2022-08-01T00:15:15;96601.75;;;20.90;63.73
57644;BME280;43474;46.510;6.686;2022-08-01T00:17:42;96592.16;;;20.70;65.39
57644;BME280;43474;46.510;6.686;2022-08-01T00:20:11;96597.63;;;20.65;64.06
57644;BME280;43474;46.510;6.686;2022-08-01T00:22:38;96601.22;;;20.60;64.16
57644;BME280;43474;46.510;6.686;2022-08-01T00:25:04;96601.50;;;20.59;65.00
57644;BME280;43474;46.510;6.686;2022-08-01T00:27:31;96589.81;;;20.50;67.09
57644;BME280;43474;46.510;6.686;2022-08-01T00:29:57;96596.22;;;20.35;69.01
57644;BME280;43474;46.510;6.686;2022-08-01T00:32:23;96592.91;;;20.24;67.83
57644;BME280;43474;46.510;6.686;2022-08-01T00:34:48;96599.75;;;20.17;68.42
57644;BME280;43474;46.510;6.686;2022-08-01T00:37:14;96602.50;;;20.30;66.92
57644;BME280;43474;46.510;6.686;2022-08-01T00:39:39;96591.19;;;20.28;66.38
57644;BME280;43474;46.510;6.686;2022-08-01T00:42:06;96588.09;;;20.21;66.45
57644;BME280;43474;46.510;6.686;2022-08-01T00:44:33;96591.38;;;20.18;68.18
57644;BME280;43474;46.510;6.686;2022-08-01T00:46:58;96591.34;;;20.04;70.66
57644;BME280;43474;46.510;6.686;2022-08-01T00:49:24;96586.69;;;19.91;71.21
57644;BME280;43474;46.510;6.686;2022-08-01T00:51:50;96591.69;;;19.98;69.36
57644;BME280;43474;46.510;6.686;2022-08-01T00:54:15;96585.09;;;20.09;68.51
57644;BME280;43474;46.510;6.686;2022-08-01T00:56:41;96585.50;;;20.16;68.88
57644;BME280;43474;46.510;6.686;2022-08-01T00:59:07;96595.59;;;20.24;69.17
57644;BME280;43474;46.510;6.686;2022-08-01T01:01:33;96581.13;;;20.20;68.70
57644;BME280;43474;46.510;6.686;2022-08-01T01:03:58;96584.31;;;20.22;68.78
57644;BME280;43474;46.510;6.686;2022-08-01T01:12:03;96590.94;;;20.44;64.48
57644;BME280;43474;46.510;6.686;2022-08-01T01:17:31;96596.06;;;20.91;60.71
57644;BME280;43474;46.510;6.686;2022-08-01T01:19:59;96585.06;;;20.88;62.19
57644;BME280;43474;46.510;6.686;2022-08-01T01:30:42;96597.28;;;20.53;64.10
57644;BME280;43474;46.510;6.686;2022-08-01T01:33:10;96600.34;;;20.46;63.54
57644;BME280;43474;46.510;6.686;2022-08-01T01:35:38;96592.59;;;20.26;63.52
57644;BME280;43474;46.510;6.686;2022-08-01T01:38:26;96598.31;;;20.05;64.09
57644;BME280;43474;46.510;6.686;2022-08-01T01:40:55;96600.69;;;20.07;64.35
57644;BME280;43474;46.510;6.686;2022-08-01T01:43:21;96609.72;;;19.97;67.66
57644;BME280;43474;46.510;6.686;2022-08-01T01:45:49;96596.06;;;19.75;69.89
57644;BME280;43474;46.510;6.686;2022-08-01T01:48:18;96605.81;;;19.71;69.95
57644;BME280;43474;46.510;6.686;2022-08-01T01:50:46;96603.25;;;19.60;70.86
57644;BME280;43474;46.510;6.686;2022-08-01T01:53:15;96600.09;;;19.53;72.53
57644;BME280;43474;46.510;6.686;2022-08-01T01:55:45;96605.38;;;19.40;72.51
57644;BME280;43474;46.510;6.686;2022-08-01T01:58:13;96588.94;;;19.22;73.14
57644;BME280;43474;46.510;6.686;2022-08-01T02:00:44;96595.25;;;19.31;73.77
57644;BME280;43474;46.510;6.686;2022-08-01T02:03:11;96597.75;;;19.47;73.79
57644;BME280;43474;46.510;6.686;2022-08-01T02:05:38;96590.50;;;19.47;74.10
57644;BME280;43474;46.510;6.686;2022-08-01T02:08:05;96590.78;;;19.46;73.80
57644;BME280;43474;46.510;6.686;2022-08-01T02:10:32;96596.31;;;19.54;73.62
57644;BME280;43474;46.510;6.686;2022-08-01T02:13:02;96602.88;;;19.67;71.27
57644;BME280;43474;46.510;6.686;2022-08-01T02:15:29;96602.59;;;19.69;72.93
57644;BME280;43474;46.510;6.686;2022-08-01T02:17:56;96611.84;;;19.57;74.05
57644;BME280;43474;46.510;6.686;2022-08-01T02:20:22;96601.00;;;19.44;72.23
57644;BME280;43474;46.510;6.686;2022-08-01T02:22:53;96608.50;;;19.47;71.50
57644;BME280;43474;46.510;6.686;2022-08-01T02:25:35;96607.31;;;19.34;74.53
57644;BME280;43474;46.510;6.686;2022-08-01T02:28:07;96610.41;;;19.22;74.47
57644;BME280;43474;46.510;6.686;2022-08-01T02:30:37;96608.81;;;19.21;73.00
57644;BME280;43474;46.510;6.686;2022-08-01T02:33:25;96589.97;;;19.02;73.04
57644;BME280;43474;46.510;6.686;2022-08-01T02:35:56;96605.00;;;19.03;73.99
57644;BME280;43474;46.510;6.686;2022-08-01T02:38:24;96604.50;;;19.01;75.16
57644;BME280;43474;46.510;6.686;2022-08-01T02:40:52;96602.03;;;19.05;75.40
57644;BME280;43474;46.510;6.686;2022-08-01T02:43:21;96606.44;;;18.96;76.15
57644;BME280;43474;46.510;6.686;2022-08-01T02:45:52;96606.19;;;18.92;76.14
57644;BME280;43474;46.510;6.686;2022-08-01T02:48:21;96605.22;;;18.83;78.84
57644;BME280;43474;46.510;6.686;2022-08-01T02:50:51;96592.47;;;18.65;80.29
57644;BME280;43474;46.510;6.686;2022-08-01T02:53:20;96593.09;;;18.56;78.79
57644;BME280;43474;46.510;6.686;2022-08-01T02:55:47;96599.44;;;18.71;79.22
57644;BME280;43474;46.510;6.686;2022-08-01T02:58:17;96599.22;;;18.62;79.16
57644;BME280;43474;46.510;6.686;2022-08-01T03:00:44;96604.53;;;18.67;81.15
57644;BME280;43474;46.510;6.686;2022-08-01T03:03:12;96598.38;;;18.67;80.84
57644;BME280;43474;46.510;6.686;2022-08-01T03:05:39;96592.47;;;18.65;83.26
57644;BME280;43474;46.510;6.686;2022-08-01T03:08:07;96589.63;;;18.56;84.85
57644;BME280;43474;46.510;6.686;2022-08-01T03:10:36;96583.13;;;18.62;85.37
57644;BME280;43474;46.510;6.686;2022-08-01T03:13:04;96588.69;;;18.71;85.48
57644;BME280;43474;46.510;6.686;2022-08-01T03:15:33;96594.81;;;18.76;86.56
57644;BME280;43474;46.510;6.686;2022-08-01T03:18:02;96585.78;;;18.62;88.65
57644;BME280;43474;46.510;6.686;2022-08-01T03:20:32;96586.53;;;18.73;86.88
57644;BME280;43474;46.510;6.686;2022-08-01T03:23:00;96594.94;;;18.90;84.97
57644;BME280;43474;46.510;6.686;2022-08-01T03:25:27;96584.75;;;18.87;84.68
57644;BME280;43474;46.510;6.686;2022-08-01T03:27:56;96580.19;;;18.88;84.75
57644;BME280;43474;46.510;6.686;2022-08-01T03:30:25;96585.38;;;19.03;81.78
57644;BME280;43474;46.510;6.686;2022-08-01T03:32:51;96592.75;;;19.16;80.45
57644;BME280;43474;46.510;6.686;2022-08-01T03:35:17;96583.78;;;19.02;81.64
57644;BME280;43474;46.510;6.686;2022-08-01T03:37:45;96593.16;;;19.04;81.55
57644;BME280;43474;46.510;6.686;2022-08-01T03:40:40;96593.91;;;19.10;79.39
57644;BME280;43474;46.510;6.686;2022-08-01T03:43:37;96591.50;;;19.08;78.90
57644;BME280;43474;46.510;6.686;2022-08-01T03:46:07;96583.00;;;19.01;80.17
57644;BME280;43474;46.510;6.686;2022-08-01T03:48:39;96592.16;;;19.00;78.00
57644;BME280;43474;46.510;6.686;2022-08-01T03:51:07;96584.22;;;18.90;78.88
57644;BME280;43474;46.510;6.686;2022-08-01T03:53:34;96596.25;;;18.93;78.69
57644;BME280;43474;46.510;6.686;2022-08-01T03:56:02;96599.66;;;18.98;78.33
57644;BME280;43474;46.510;6.686;2022-08-01T03:58:29;96592.66;;;19.02;78.14
57644;BME280;43474;46.510;6.686;2022-08-01T04:00:55;96586.59;;;18.92;78.90
57644;BME280;43474;46.510;6.686;2022-08-01T04:03:22;96602.47;;;18.88;80.35
57644;BME280;43474;46.510;6.686;2022-08-01T04:05:48;96605.44;;;18.87;79.16
57644;BME280;43474;46.510;6.686;2022-08-01T04:08:14;96596.84;;;18.90;78.76
57644;BME280;43474;46.510;6.686;2022-08-01T04:10:39;96598.44;;;18.91;79.71
57644;BME280;43474;46.510;6.686;2022-08-01T04:13:05;96595.03;;;19.04;76.53
57644;BME280;43474;46.510;6.686;2022-08-01T04:15:30;96594.31;;;18.98;77.87
57644;BME280;43474;46.510;6.686;2022-08-01T04:17:56;96589.47;;;19.00;77.13
57644;BME280;43474;46.510;6.686;2022-08-01T04:20:21;96583.28;;;19.00;77.88
57644;BME280;43474;46.510;6.686;2022-08-01T04:22:47;96597.16;;;19.07;76.29
57644;BME280;43474;46.510;6.686;2022-08-01T04:25:21;96595.28;;;19.07;76.79
57644;BME280;43474;46.510;6.686;2022-08-01T04:27:50;96579.78;;;18.99;77.01
57644;BME280;43474;46.510;6.686;2022-08-01T04:30:20;96599.22;;;19.15;76.71
57644;BME280;43474;46.510;6.686;2022-08-01T04:32:48;96607.50;;;19.19;76.49
57644;BME280;43474;46.510;6.686;2022-08-01T04:35:18;96591.44;;;19.14;76.23
57644;BME280;43474;46.510;6.686;2022-08-01T04:37:47;96591.31;;;19.24;75.63
57644;BME280;43474;46.510;6.686;2022-08-01T04:40:14;96596.66;;;19.48;73.48
57644;BME280;43474;46.510;6.686;2022-08-01T04:42:41;96607.25;;;19.63;72.50
57644;BME280;43474;46.510;6.686;2022-08-01T04:45:08;96611.47;;;19.69;72.52
57644;BME280;43474;46.510;6.686;2022-08-01T04:47:35;96610.72;;;19.63;73.83
57644;BME280;43474;46.510;6.686;2022-08-01T04:50:05;96620.13;;;19.66;73.13
57644;BME280;43474;46.510;6.686;2022-08-01T04:52:34;96615.78;;;19.70;72.91
57644;BME280;43474;46.510;6.686;2022-08-01T04:55:01;96598.41;;;19.57;74.20
57644;BME280;43474;46.510;6.686;2022-08-01T04:57:27;96608.88;;;19.59;74.83
57644;BME280;43474;46.510;6.686;2022-08-01T04:59:52;96604.00;;;19.66;72.35
57644;BME280;43474;46.510;6.686;2022-08-01T05:02:22;96616.72;;;19.79;71.46
57644;BME280;43474;46.510;6.686;2022-08-01T05:04:48;96617.22;;;19.81;72.01
57644;BME280;43474;46.510;6.686;2022-08-01T05:07:14;96607.91;;;19.74;74.30
57644;BME280;43474;46.510;6.686;2022-08-01T05:09:41;96619.84;;;19.86;73.20
57644;BME280;43474;46.510;6.686;2022-08-01T05:12:07;96617.88;;;19.92;71.94
57644;BME280;43474;46.510;6.686;2022-08-01T05:14:33;96609.38;;;19.85;73.51
57644;BME280;43474;46.510;6.686;2022-08-01T05:17:03;96622.00;;;20.03;72.22
57644;BME280;43474;46.510;6.686;2022-08-01T05:19:33;96623.63;;;20.04;74.21
57644;BME280;43474;46.510;6.686;2022-08-01T05:22:00;96626.59;;;20.03;72.01
57644;BME280;43474;46.510;6.686;2022-08-01T05:24:28;96623.03;;;20.07;72.36
57644;BME280;43474;46.510;6.686;2022-08-01T05:26:55;96619.75;;;20.10;73.80
57644;BME280;43474;46.510;6.686;2022-08-01T05:29:21;96623.09;;;20.02;73.73
57644;BME280;43474;46.510;6.686;2022-08-01T05:31:46;96626.50;;;20.08;75.22
57644;BME280;43474;46.510;6.686;2022-08-01T05:34:12;96618.25;;;20.04;74.62
57644;BME280;43474;46.510;6.686;2022-08-01T05:36:37;96612.00;;;20.09;75.25
57644;BME280;43474;46.510;6.686;2022-08-01T05:39:04;96619.06;;;20.19;74.82
57644;BME280;43474;46.510;6.686;2022-08-01T05:41:30;96624.25;;;20.34;73.18
57644;BME280;43474;46.510;6.686;2022-08-01T05:43:55;96624.66;;;20.41;73.90
57644;BME280;43474;46.510;6.686;2022-08-01T05:46:21;96629.03;;;20.56;76.81
57644;BME280;43474;46.510;6.686;2022-08-01T05:48:46;96615.38;;;20.66;72.80
57644;BME280;43474;46.510;6.686;2022-08-01T05:51:12;96627.38;;;20.74;74.87
57644;BME280;43474;46.510;6.686;2022-08-01T05:53:37;96619.09;;;20.70;77.11
57644;BME280;43474;46.510;6.686;2022-08-01T05:56:03;96619.56;;;20.72;74.55
57644;BME280;43474;46.510;6.686;2022-08-01T05:58:29;96622.31;;;20.86;74.02
57644;BME280;43474;46.510;6.686;2022-08-01T06:00:54;96632.09;;;20.96;75.46
57644;BME280;43474;46.510;6.686;2022-08-01T06:03:20;96640.78;;;21.06;74.82
57644;BME280;43474;46.510;6.686;2022-08-01T06:05:45;96627.78;;;21.08;74.42
57644;BME280;43474;46.510;6.686;2022-08-01T06:08:11;96629.22;;;21.20;73.12
57644;BME280;43474;46.510;6.686;2022-08-01T06:10:36;96635.25;;;21.30;71.26
57644;BME280;43474;46.510;6.686;2022-08-01T06:13:02;96624.84;;;21.37;72.54
57644;BME280;43474;46.510;6.686;2022-08-01T06:15:32;96643.50;;;21.61;70.85
57644;BME280;43474;46.510;6.686;2022-08-01T06:17:58;96648.34;;;21.87;69.28
57644;BME280;43474;46.510;6.686;2022-08-01T06:20:24;96632.56;;;22.30;69.22
57644;BME280;43474;46.510;6.686;2022-08-01T06:22:49;96632.97;;;22.91;66.68
57644;BME280;43474;46.510;6.686;2022-08-01T06:25:17;96629.91;;;23.63;65.57
57644;BME280;43474;46.510;6.686;2022-08-01T06:27:43;96634.47;;;24.37;63.29
57644;BME280;43474;46.510;6.686;2022-08-01T06:30:10;96621.13;;;25.35;55.28
57644;BME280;43474;46.510;6.686;2022-08-01T06:32:35;96617.63;;;26.68;51.99
57644;BME280;43474;46.510;6.686;2022-08-01T06:35:01;96623.97;;;27.91;48.83
57644;BME280;43474;46.510;6.686;2022-08-01T06:37:30;96631.63;;;28.82;46.94
57644;BME280;43474;46.510;6.686;2022-08-01T06:40:06;96633.69;;;29.48;43.69
57644;BME280;43474;46.510;6.686;2022-08-01T06:42:33;96633.94;;;30.10;42.76
57644;BME280;43474;46.510;6.686;2022-08-01T06:45:04;96621.81;;;30.46;41.18
57644;BME280;43474;46.510;6.686;2022-08-01T06:47:30;96629.44;;;30.56;40.81
57644;BME280;43474;46.510;6.686;2022-08-01T06:49:56;96636.66;;;30.64;41.11
57644;BME280;43474;46.510;6.686;2022-08-01T06:52:22;96615.34;;;30.54;40.84
57644;BME280;43474;46.510;6.686;2022-08-01T06:54:47;96625.25;;;30.82;42.18
57644;BME280;43474;46.510;6.686;2022-08-01T06:57:13;96632.91;;;30.53;41.16
57644;BME280;43474;46.510;6.686;2022-08-01T06:59:38;96630.53;;;30.71;42.80
57644;BME280;43474;46.510;6.686;2022-08-01T07:02:04;96618.53;;;31.22;41.16
57644;BME280;43474;46.510;6.686;2022-08-01T07:04:29;96634.53;;;31.43;39.48
57644;BME280;43474;46.510;6.686;2022-08-01T07:06:55;96621.97;;;31.64;40.76
57644;BME280;43474;46.510;6.686;2022-08-01T07:09:21;96629.00;;;31.88;38.07
57644;BME280;43474;46.510;6.686;2022-08-01T07:11:46;96626.81;;;32.31;38.63
57644;BME280;43474;46.510;6.686;2022-08-01T07:14:12;96625.72;;;32.06;39.33
57644;BME280;43474;46.510;6.686;2022-08-01T07:16:37;96620.94;;;32.29;36.76
57644;BME280;43474;46.510;6.686;2022-08-01T07:19:03;96624.41;;;32.56;36.74
57644;BME280;43474;46.510;6.686;2022-08-01T07:21:28;96619.50;;;32.39;38.42
57644;BME280;43474;46.510;6.686;2022-08-01T07:23:54;96629.22;;;32.66;38.04
57644;BME280;43474;46.510;6.686;2022-08-01T07:26:20;96621.09;;;32.40;35.93
57644;BME280;43474;46.510;6.686;2022-08-01T07:28:45;96624.22;;;32.76;35.59
57644;BME280;43474;46.510;6.686;2022-08-01T07:31:10;96619.59;;;32.83;35.27
57644;BME280;43474;46.510;6.686;2022-08-01T07:33:36;96626.91;;;33.06;35.13
57644;BME280;43474;46.510;6.686;2022-08-01T07:36:02;96614.44;;;33.15;35.85
57644;BME280;43474;46.510;6.686;2022-08-01T07:38:29;96615.31;;;33.27;35.49
57644;BME280;43474;46.510;6.686;2022-08-01T07:40:54;96614.81;;;33.14;33.92
57644;BME280;43474;46.510;6.686;2022-08-01T07:43:20;96625.72;;;33.07;33.21
57644;BME280;43474;46.510;6.686;2022-08-01T07:45:45;96619.00;;;33.01;34.19
57644;BME280;43474;46.510;6.686;2022-08-01T07:48:11;96622.09;;;32.96;34.54
57644;BME280;43474;46.510;6.686;2022-08-01T07:50:36;96623.59;;;33.30;32.86
57644;BME280;43474;46.510;6.686;2022-08-01T07:53:02;96613.72;;;32.85;34.03
57644;BME280;43474;46.510;6.686;2022-08-01T07:55:29;96628.75;;;32.95;33.67
57644;BME280;43474;46.510;6.686;2022-08-01T07:57:54;96623.47;;;33.16;35.12
57644;BME280;43474;46.510;6.686;2022-08-01T08:00:20;96620.34;;;33.17;34.33
57644;BME280;43474;46.510;6.686;2022-08-01T08:02:45;96623.22;;;32.91;37.13
57644;BME280;43474;46.510;6.686;2022-08-01T08:05:11;96615.31;;;33.27;34.72
57644;BME280;43474;46.510;6.686;2022-08-01T08:07:37;96607.38;;;33.14;33.06
57644;BME280;43474;46.510;6.686;2022-08-01T08:10:04;96618.69;;;33.09;35.53
57644;BME280;43474;46.510;6.686;2022-08-01T08:12:31;96608.75;;;32.94;33.98
57644;BME280;43474;46.510;6.686;2022-08-01T08:14:57;96621.41;;;33.02;34.08
57644;BME280;43474;46.510;6.686;2022-08-01T08:17:25;96619.13;;;32.74;33.49
57644;BME280;43474;46.510;6.686;2022-08-01T08:19:51;96617.28;;;32.48;34.34
57644;BME280;43474;46.510;6.686;2022-08-01T08:22:16;96609.31;;;32.73;33.21
57644;BME280;43474;46.510;6.686;2022-08-01T08:24:42;96601.88;;;33.14;34.19
57644;BME280;43474;46.510;6.686;2022-08-01T08:27:07;96617.34;;;33.33;32.34
57644;BME280;43474;46.510;6.686;2022-08-01T08:29:33;96609.81;;;33.27;32.71
57644;BME280;43474;46.510;6.686;2022-08-01T08:31:59;96610.78;;;33.45;32.71
57644;BME280;43474;46.510;6.686;2022-08-01T08:34:27;96608.19;;;33.18;32.84
57644;BME280;43474;46.510;6.686;2022-08-01T08:36:54;96609.94;;;33.41;32.72
57644;BME280;43474;46.510;6.686;2022-08-01T08:39:22;96604.09;;;32.98;33.86
57644;BME280;43474;46.510;6.686;2022-08-01T08:41:47;96620.00;;;33.26;32.12
57644;BME280;43474;46.510;6.686;2022-08-01T08:44:13;96616.47;;;33.26;33.12
57644;BME280;43474;46.510;6.686;2022-08-01T08:46:45;96612.63;;;33.34;32.33
57644;BME280;43474;46.510;6.686;2022-08-01T08:49:13;96611.03;;;33.29;31.89
57644;BME280;43474;46.510;6.686;2022-08-01T08:51:41;96611.34;;;33.21;33.77
57644;BME280;43474;46.510;6.686;2022-08-01T08:54:07;96605.66;;;32.99;32.22
57644;BME280;43474;46.510;6.686;2022-08-01T08:56:37;96598.22;;;33.00;33.37
57644;BME280;43474;46.510;6.686;2022-08-01T08:59:03;96602.19;;;32.68;34.88
57644;BME280;43474;46.510;6.686;2022-08-01T09:01:31;96597.91;;;32.71;33.66
57644;BME280;43474;46.510;6.686;2022-08-01T09:03:59;96602.03;;;32.91;36.73
57644;BME280;43474;46.510;6.686;2022-08-01T09:06:25;96597.91;;;32.71;34.43
57644;BME280;43474;46.510;6.686;2022-08-01T09:08:50;96587.78;;;32.79;34.32
57644;BME280;43474;46.510;6.686;2022-08-01T09:11:16;96586.38;;;32.55;36.31
57644;BME280;43474;46.510;6.686;2022-08-01T09:13:41;96586.63;;;32.80;35.01
57644;BME280;43474;46.510;6.686;2022-08-01T09:16:25;96587.69;;;32.68;34.45
57644;BME280;43474;46.510;6.686;2022-08-01T09:18:51;96579.28;;;32.91;34.63
57644;BME280;43474;46.510;6.686;2022-08-01T09:21:18;96598.38;;;33.21;35.09
57644;BME280;43474;46.510;6.686;2022-08-01T09:26:17;96592.97;;;33.28;34.80
57644;BME280;43474;46.510;6.686;2022-08-01T09:28:43;96598.13;;;33.33;34.44
57644;BME280;43474;46.510;6.686;2022-08-01T09:31:14;96590.69;;;33.41;33.89
57644;BME280;43474;46.510;6.686;2022-08-01T09:36:13;96586.59;;;33.17;35.02
57644;BME280;43474;46.510;6.686;2022-08-01T09:38:38;96590.06;;;33.10;34.13
57644;BME280;43474;46.510;6.686;2022-08-01T09:41:04;96586.00;;;32.93;34.82
57644;BME280;43474;46.510;6.686;2022-08-01T09:43:30;96567.09;;;32.88;34.55
57644;BME280;43474;46.510;6.686;2022-08-01T09:45:56;96593.25;;;33.12;34.93
57644;BME280;43474;46.510;6.686;2022-08-01T09:48:22;96589.63;;;33.05;34.48
57644;BME280;43474;46.510;6.686;2022-08-01T09:50:50;96581.19;;;32.83;33.85
57644;BME280;43474;46.510;6.686;2022-08-01T09:53:16;96583.03;;;33.16;35.97
57644;BME280;43474;46.510;6.686;2022-08-01T09:55:42;96588.19;;;33.18;33.28
57644;BME280;43474;46.510;6.686;2022-08-01T09:58:08;96589.88;;;33.33;33.92
57644;BME280;43474;46.510;6.686;2022-08-01T10:00:36;96582.13;;;33.42;33.76
57644;BME280;43474;46.510;6.686;2022-08-01T10:03:24;96575.59;;;33.65;34.37
57644;BME280;43474;46.510;6.686;2022-08-01T10:05:51;96575.47;;;33.47;36.00
57644;BME280;43474;46.510;6.686;2022-08-01T10:08:19;96565.53;;;33.35;34.18
57644;BME280;43474;46.510;6.686;2022-08-01T10:11:10;96576.63;;;33.42;33.21
57644;BME280;43474;46.510;6.686;2022-08-01T10:13:36;96575.47;;;33.47;34.10
57644;BME280;43474;46.510;6.686;2022-08-01T10:16:02;96558.47;;;33.34;32.81
57644;BME280;43474;46.510;6.686;2022-08-01T10:18:31;96561.09;;;33.68;33.02
57644;BME280;43474;46.510;6.686;2022-08-01T10:20:58;96558.47;;;33.93;31.45
57644;BME280;43474;46.510;6.686;2022-08-01T10:23:26;96563.50;;;33.84;31.37
57644;BME280;43474;46.510;6.686;2022-08-01T10:25:54;96557.22;;;33.83;32.75
57644;BME280;43474;46.510;6.686;2022-08-01T10:28:21;96563.66;;;34.02;32.03
57644;BME280;43474;46.510;6.686;2022-08-01T10:30:48;96552.25;;;34.03;31.54
57644;BME280;43474;46.510;6.686;2022-08-01T10:33:15;96556.66;;;34.26;34.26
57644;BME280;43474;46.510;6.686;2022-08-01T10:35:41;96550.31;;;34.14;31.68
57644;BME280;43474;46.510;6.686;2022-08-01T10:38:07;96553.50;;;34.31;31.52
57644;BME280;43474;46.510;6.686;2022-08-01T10:40:33;96540.63;;;34.45;32.61
57644;BME280;43474;46.510;6.686;2022-08-01T10:42:59;96541.34;;;34.32;30.65
57644;BME280;43474;46.510;6.686;2022-08-01T10:45:25;96523.75;;;34.68;34.09
57644;BME280;43474;46.510;6.686;2022-08-01T10:48:24;96543.84;;;34.83;31.71
57644;BME280;43474;46.510;6.686;2022-08-01T10:50:54;96528.09;;;34.87;31.51
57644;BME280;43474;46.510;6.686;2022-08-01T10:53:25;96530.81;;;34.59;30.63
57644;BME280;43474;46.510;6.686;2022-08-01T10:56:09;96536.25;;;34.44;31.28
57644;BME280;43474;46.510;6.686;2022-08-01T10:58:37;96529.19;;;34.36;31.67
57644;BME280;43474;46.510;6.686;2022-08-01T11:01:25;96544.09;;;34.35;31.55
57644;BME280;43474;46.510;6.686;2022-08-01T11:09:00;96539.75;;;34.16;30.69
57644;BME280;43474;46.510;6.686;2022-08-01T11:11:26;96545.28;;;34.27;32.07
57644;BME280;43474;46.510;6.686;2022-08-01T11:16:31;96511.38;;;34.02;31.05
57644;BME280;43474;46.510;6.686;2022-08-01T11:18:57;96523.22;;;34.13;29.71
57644;BME280;43474;46.510;6.686;2022-08-01T11:29:42;96505.63;;;34.50;30.35
57644;BME280;43474;46.510;6.686;2022-08-01T11:32:23;96498.97;;;34.54;30.06
57644;BME280;43474;46.510;6.686;2022-08-01T11:34:54;96503.19;;;34.30;28.73
57644;BME280;43474;46.510;6.686;2022-08-01T11:37:27;96479.19;;;34.20;28.52
57644;BME280;43474;46.510;6.686;2022-08-01T11:40:19;96500.88;;;34.39;30.50
57644;BME280;43474;46.510;6.686;2022-08-01T11:42:45;96482.00;;;34.38;28.05
57644;BME280;43474;46.510;6.686;2022-08-01T11:45:11;96494.91;;;34.16;29.07
57644;BME280;43474;46.510;6.686;2022-08-01T11:47:48;96492.19;;;34.30;28.37
57644;BME280;43474;46.510;6.686;2022-08-01T11:50:35;96486.28;;;34.17;29.23
57644;BME280;43474;46.510;6.686;2022-08-01T11:53:04;96473.66;;;33.99;28.03
57644;BME280;43474;46.510;6.686;2022-08-01T11:55:30;96480.00;;;34.17;26.69
57644;BME280;43474;46.510;6.686;2022-08-01T11:58:05;96464.19;;;33.92;28.53
57644;BME280;43474;46.510;6.686;2022-08-01T12:00:31;96466.59;;;33.98;27.29
57644;BME280;43474;46.510;6.686;2022-08-01T12:03:05;96467.00;;;34.03;26.91
57644;BME280;43474;46.510;6.686;2022-08-01T12:05:33;96466.66;;;34.44;30.16
57644;BME280;43474;46.510;6.686;2022-08-01T12:08:00;96452.56;;;34.53;27.69
57644;BME280;43474;46.510;6.686;2022-08-01T12:10:28;96453.34;;;34.89;28.77
57644;BME280;43474;46.510;6.686;2022-08-01T12:13:02;96462.00;;;34.77;27.75
57644;BME280;43474;46.510;6.686;2022-08-01T12:15:37;96462.81;;;34.66;26.83
57644;BME280;43474;46.510;6.686;2022-08-01T12:18:06;96456.50;;;34.69;26.10
57644;BME280;43474;46.510;6.686;2022-08-01T12:20:33;96457.28;;;34.63;26.98
57644;BME280;43474;46.510;6.686;2022-08-01T12:23:07;96456.44;;;34.34;26.54
57644;BME280;43474;46.510;6.686;2022-08-01T12:25:34;96453.31;;;34.32;25.43
57644;BME280;43474;46.510;6.686;2022-08-01T12:28:01;96437.94;;;34.31;27.09
57644;BME280;43474;46.510;6.686;2022-08-01T12:30:27;96441.84;;;34.15;27.36
57644;BME280;43474;46.510;6.686;2022-08-01T12:32:57;96456.38;;;34.09;26.84
57644;BME280;43474;46.510;6.686;2022-08-01T12:35:24;96435.47;;;33.90;27.62
57644;BME280;43474;46.510;6.686;2022-08-01T12:37:57;96452.75;;;33.90;28.35
57644;BME280;43474;46.510;6.686;2022-08-01T12:40:25;96452.72;;;33.76;27.45
57644;BME280;43474;46.510;6.686;2022-08-01T12:42:53;96446.44;;;33.72;27.55
57644;BME280;43474;46.510;6.686;2022-08-01T12:45:21;96461.50;;;34.07;26.07
57644;BME280;43474;46.510;6.686;2022-08-01T12:47:48;96449.31;;;34.08;27.77
57644;BME280;43474;46.510;6.686;2022-08-01T12:50:18;96447.78;;;34.17;28.05
57644;BME280;43474;46.510;6.686;2022-08-01T12:52:44;96457.16;;;34.02;26.79
57644;BME280;43474;46.510;6.686;2022-08-01T12:57:40;96446.56;;;33.97;24.68
57644;BME280;43474;46.510;6.686;2022-08-01T13:02:34;96456.00;;;34.14;27.05
57644;BME280;43474;46.510;6.686;2022-08-01T13:05:01;96452.84;;;34.15;26.64
57644;BME280;43474;46.510;6.686;2022-08-01T13:08:02;96444.22;;;34.20;21.36
57644;BME280;43474;46.510;6.686;2022-08-01T13:10:34;96443.84;;;34.18;22.35
57644;BME280;43474;46.510;6.686;2022-08-01T13:13:00;96437.56;;;34.22;22.93
57644;BME280;43474;46.510;6.686;2022-08-01T13:17:54;96435.16;;;34.09;22.31
57644;BME280;43474;46.510;6.686;2022-08-01T13:20:33;96434.78;;;34.04;20.94
57644;BME280;43474;46.510;6.686;2022-08-01T13:23:12;96433.97;;;34.03;22.94
57644;BME280;43474;46.510;6.686;2022-08-01T13:25:54;96426.53;;;34.07;22.98
57644;BME280;43474;46.510;6.686;2022-08-01T13:28:25;96433.13;;;33.88;24.26
57644;BME280;43474;46.510;6.686;2022-08-01T13:30:55;96426.44;;;33.86;24.21
57644;BME280;43474;46.510;6.686;2022-08-01T13:33:23;96430.81;;;33.94;23.32
57644;BME280;43474;46.510;6.686;2022-08-01T13:35:52;96433.91;;;33.82;23.14
57644;BME280;43474;46.510;6.686;2022-08-01T13:38:19;96430.34;;;33.78;25.53
57644;BME280;43474;46.510;6.686;2022-08-01T13:40:45;96434.66;;;33.79;23.18
57644;BME280;43474;46.510;6.686;2022-08-01T13:43:11;96435.06;;;33.81;24.29
57644;BME280;43474;46.510;6.686;2022-08-01T13:45:36;96416.13;;;33.58;22.87
57644;BME280;43474;46.510;6.686;2022-08-01T13:48:04;96412.88;;;33.41;24.00
57644;BME280;43474;46.510;6.686;2022-08-01T13:50:29;96417.31;;;33.57;26.71